Time;durP1;ratioP1;P1;durP2;ratioP2;P2;SDS_P1;SDS_P2;PMS_P1;PMS_P2;Temp;Humidity;BMP_temperature;BMP_pressure;BME280_temperature;BME280_humidity;BME280_pressure;Samples;Min_cycle;Max_cycle;Signal;HPM_P1;HPM_P2
2023/04/02 00:00:26;;;;;;;1.23;1.15;;;5.80;99.90;;;;;;5093819;28;20131;-78
2023/04/02 00:03:00;;;;;;;1.13;1.00;;;5.70;99.90;;;;;;5092312;28;20119;-77
2023/04/02 00:05:29;;;;;;;1.67;1.23;;;5.70;99.90;;;;;;5093883;28;20085;-78
2023/04/02 00:07:58;;;;;;;1.00;1.00;;;5.70;99.90;;;;;;5075370;28;20097;-78
2023/04/02 00:10:33;;;;;;;1.02;1.02;;;5.70;99.90;;;;;;5093814;28;20038;-78
2023/04/02 00:13:03;;;;;;;0.90;0.90;;;5.70;99.90;;;;;;5093842;28;20112;-78
2023/04/02 00:15:30;;;;;;;1.85;1.00;;;5.70;99.90;;;;;;5094079;28;20111;-78
2023/04/02 00:17:56;;;;;;;0.98;0.90;;;5.80;99.90;;;;;;5092136;28;20036;-78
2023/04/02 00:20:24;;;;;;;1.45;1.20;;;5.70;99.90;;;;;;5093218;28;20497;-77
2023/04/02 00:22:50;;;;;;;1.33;1.27;;;5.70;99.90;;;;;;5093709;28;20032;-78
2023/04/02 00:25:16;;;;;;;1.20;1.10;;;5.70;99.90;;;;;;5093601;28;20039;-77
2023/04/02 00:27:42;;;;;;;1.55;1.00;;;5.60;99.90;;;;;;5092095;28;20040;-78
2023/04/02 00:30:11;;;;;;;0.95;0.95;;;5.60;99.90;;;;;;5092271;28;20399;-78
2023/04/02 00:32:38;;;;;;;1.02;1.02;;;5.60;99.90;;;;;;5092281;28;20043;-77
2023/04/02 00:35:17;;;;;;;1.02;1.02;;;5.60;99.90;;;;;;5126086;28;20083;-77
2023/04/02 00:37:43;;;;;;;1.08;1.08;;;5.50;99.90;;;;;;5096502;28;20071;-77
2023/04/02 00:40:30;;;;;;;1.00;1.00;;;5.50;99.90;;;;;;5096389;28;20032;-77
2023/04/02 00:43:00;;;;;;;1.05;1.05;;;5.40;99.90;;;;;;5096065;28;20541;-77
2023/04/02 00:45:31;;;;;;;1.30;0.98;;;5.40;99.90;;;;;;5097571;28;20071;-77
2023/04/02 00:48:12;;;;;;;1.10;1.00;;;5.40;99.90;;;;;;5095918;28;20541;-78
2023/04/02 00:50:42;;;;;;;1.00;1.00;;;5.40;99.90;;;;;;5097445;28;20036;-77
2023/04/02 00:53:14;;;;;;;1.15;1.08;;;5.40;99.90;;;;;;5097437;28;20048;-77
2023/04/02 00:55:40;;;;;;;1.00;0.90;;;5.40;99.90;;;;;;5097419;28;20119;-78
2023/04/02 00:58:20;;;;;;;0.98;0.85;;;5.40;99.90;;;;;;5095982;28;20043;-78
2023/04/02 01:00:49;;;;;;;;;;;5.30;99.90;;;;;;5097627;28;20047;-78
2023/04/02 01:03:15;;;;;;;1.13;0.98;;;5.30;99.90;;;;;;5095698;28;19916;-78
2023/04/02 01:05:47;;;;;;;1.00;1.00;;;5.20;99.90;;;;;;5097156;28;20119;-77
2023/04/02 01:08:15;;;;;;;0.80;0.80;;;5.20;99.90;;;;;;5095651;28;20040;-77
2023/04/02 01:10:59;;;;;;;1.20;1.10;;;5.00;99.90;;;;;;5095832;28;20372;-78
2023/04/02 01:13:52;;;;;;;1.02;1.00;;;4.90;99.90;;;;;;5097136;28;20054;-77
2023/04/02 01:16:41;;;;;;;1.50;1.10;;;4.80;99.90;;;;;;5090542;28;20380;-77
2023/04/02 01:19:30;;;;;;;1.00;1.00;;;4.80;99.90;;;;;;5096665;28;20547;-78
2023/04/02 01:22:12;;;;;;;1.40;1.10;;;4.70;99.90;;;;;;5096118;28;20044;-77
2023/04/02 01:24:38;;;;;;;1.00;1.00;;;4.60;99.90;;;;;;5095285;28;20043;-77
2023/04/02 01:27:14;;;;;;;0.90;0.90;;;4.60;99.90;;;;;;5096773;28;20037;-77
2023/04/02 01:29:48;;;;;;;1.10;1.00;;;4.40;99.90;;;;;;5095656;28;20049;-78
2023/04/02 01:32:18;;;;;;;0.95;0.95;;;4.40;99.90;;;;;;5096784;28;20132;-78
2023/04/02 01:34:47;;;;;;;1.10;1.00;;;4.30;99.90;;;;;;5096608;28;20047;-77
2023/04/02 01:37:27;;;;;;;1.10;1.00;;;4.30;99.90;;;;;;5096418;28;20131;-77
2023/04/02 01:40:05;;;;;;;0.90;0.90;;;4.30;99.90;;;;;;5096652;28;20047;-78
2023/04/02 01:42:59;;;;;;;1.33;0.95;;;4.30;99.90;;;;;;5096807;28;20055;-78
2023/04/02 01:45:25;;;;;;;1.08;0.98;;;4.30;99.90;;;;;;5094930;28;20392;-79
2023/04/02 01:47:51;;;;;;;0.95;0.95;;;4.10;99.90;;;;;;5094935;28;20051;-77
2023/04/02 01:50:30;;;;;;;1.00;0.90;;;4.10;99.90;;;;;;5094817;28;20044;-78
2023/04/02 01:53:02;;;;;;;1.05;1.00;;;4.00;99.90;;;;;;5096375;28;20078;-77
2023/04/02 01:55:41;;;;;;;0.80;0.80;;;3.80;99.90;;;;;;5094986;28;20062;-77
2023/04/02 01:58:10;;;;;;;0.80;0.80;;;3.90;99.90;;;;;;5095034;28;20036;-77
2023/04/02 02:00:42;;;;;;;1.27;1.00;;;3.90;99.90;;;;;;5095796;28;20294;-77
2023/04/02 02:03:11;;;;;;;1.02;0.90;;;3.80;99.90;;;;;;5094535;28;20068;-77
2023/04/02 02:05:36;;;;;;;1.05;0.98;;;3.90;99.90;;;;;;5077859;28;20036;-77
2023/04/02 02:08:03;;;;;;;0.90;0.90;;;3.90;99.90;;;;;;5095935;28;20065;-77
2023/04/02 02:10:34;;;;;;;1.85;1.40;;;3.80;99.90;;;;;;5094640;28;20118;-77
2023/04/02 02:13:00;;;;;;;1.17;1.05;;;3.70;99.90;;;;;;5095971;28;20118;-77
2023/04/02 02:15:27;;;;;;;0.95;0.90;;;3.70;99.90;;;;;;5077739;28;20463;-77
2023/04/02 02:18:03;;;;;;;1.23;0.90;;;3.60;99.90;;;;;;5094558;28;20432;-77
2023/04/02 02:20:29;;;;;;;1.05;0.95;;;3.60;99.90;;;;;;5094153;28;20079;-77
2023/04/02 02:22:56;;;;;;;1.00;0.90;;;3.60;99.90;;;;;;5095734;28;20040;-77
2023/04/02 02:25:29;;;;;;;1.20;1.10;;;3.60;99.90;;;;;;5095697;28;20107;-78
2023/04/02 02:28:00;;;;;;;1.10;1.10;;;3.60;99.90;;;;;;5094396;28;20472;-77
2023/04/02 02:30:37;;;;;;;1.17;0.90;;;3.50;99.90;;;;;;5095607;28;20039;-77
2023/04/02 02:33:21;;;;;;;1.23;1.15;;;3.50;99.90;;;;;;5095301;28;20051;-77
2023/04/02 02:35:55;;;;;;;1.10;1.00;;;3.40;99.90;;;;;;5094227;28;20369;-77
2023/04/02 02:38:32;;;;;;;0.90;0.90;;;3.40;99.90;;;;;;5093775;28;20056;-77
2023/04/02 02:41:10;;;;;;;2.05;1.30;;;3.40;99.90;;;;;;5095293;28;20052;-78
2023/04/02 02:43:57;;;;;;;1.17;1.08;;;3.30;99.90;;;;;;5077182;28;20028;-77
2023/04/02 02:46:26;;;;;;;0.90;0.90;;;3.30;99.90;;;;;;5093786;28;20108;-77
2023/04/02 02:48:54;;;;;;;1.30;1.20;;;3.30;99.90;;;;;;5093852;28;20043;-77
2023/04/02 02:51:56;;;;;;;1.30;1.20;;;3.30;99.90;;;;;;5093586;28;20058;-77
2023/04/02 02:54:21;;;;;;;1.10;1.00;;;3.30;99.90;;;;;;5091285;28;20052;-78
2023/04/02 02:56:54;;;;;;;1.10;1.00;;;3.20;99.90;;;;;;5094983;28;20036;-78
2023/04/02 02:59:21;;;;;;;1.10;1.00;;;3.30;99.90;;;;;;5093046;28;20044;-77
2023/04/02 03:01:47;;;;;;;0.90;0.88;;;3.30;99.90;;;;;;5094922;28;20050;-77
2023/04/02 03:04:19;;;;;;;1.30;1.20;;;3.30;99.90;;;;;;5093734;28;20332;-77
2023/04/02 03:06:51;;;;;;;0.95;0.90;;;3.30;99.90;;;;;;5094612;28;20040;-77
2023/04/02 03:09:32;;;;;;;1.00;0.90;;;3.40;99.90;;;;;;5094914;28;20040;-78
2023/04/02 03:12:07;;;;;;;0.93;0.90;;;3.40;99.90;;;;;;5093779;28;20052;-77
2023/04/02 03:14:40;;;;;;;0.90;0.90;;;3.40;99.90;;;;;;5094691;28;20043;-77
2023/04/02 03:17:23;;;;;;;0.80;0.80;;;3.50;99.90;;;;;;5076294;28;20534;-77
2023/04/02 03:19:55;;;;;;;0.80;0.80;;;3.30;99.90;;;;;;5093696;28;20062;-77
2023/04/02 03:22:30;;;;;;;1.20;1.10;;;3.40;99.90;;;;;;5093168;28;20062;-77
2023/04/02 03:25:15;;;;;;;1.48;0.88;;;3.40;99.90;;;;;;5094186;28;20048;-77
2023/04/02 03:27:46;;;;;;;1.55;1.00;;;3.30;99.90;;;;;;5092892;28;20044;-77
2023/04/02 03:30:39;;;;;;;1.50;1.00;;;3.30;99.90;;;;;;5093166;28;20422;-77
2023/04/02 03:33:22;;;;;;;0.70;0.70;;;3.20;99.90;;;;;;5075959;28;20076;-77
2023/04/02 03:36:22;;;;;;;1.27;1.02;;;3.20;99.90;;;;;;5094340;28;20036;-77
2023/04/02 03:39:16;;;;;;;1.17;1.00;;;3.10;99.90;;;;;;5089705;28;20062;-77
2023/04/02 03:42:15;;;;;;;0.85;0.80;;;3.10;99.90;;;;;;5092536;28;20305;-77
2023/04/02 03:44:51;;;;;;;1.65;0.95;;;3.00;99.90;;;;;;5092975;28;20141;-77
2023/04/02 03:47:31;;;;;;;1.10;0.90;;;3.10;99.90;;;;;;5094277;28;20387;-77
2023/04/02 03:50:10;;;;;;;1.15;0.85;;;3.10;99.90;;;;;;5094175;28;20071;-78
2023/04/02 03:52:37;;;;;;;0.93;0.83;;;3.00;99.90;;;;;;5094193;28;20109;-77
2023/04/02 03:55:18;;;;;;;1.27;0.82;;;3.00;99.90;;;;;;5093695;28;20040;-77
2023/04/02 03:57:56;;;;;;;0.82;0.82;;;2.90;99.90;;;;;;5094527;28;20051;-77
2023/04/02 04:00:35;;;;;;;1.20;0.90;;;3.00;99.90;;;;;;5092309;28;20119;-77
2023/04/02 04:03:25;;;;;;;1.10;1.00;;;2.90;99.90;;;;;;5094020;28;20053;-77
2023/04/02 04:06:12;;;;;;;0.93;0.90;;;2.80;99.90;;;;;;5092313;28;20143;-77
2023/04/02 04:09:10;;;;;;;0.80;0.75;;;2.90;99.90;;;;;;5093587;28;20043;-77
2023/04/02 04:11:43;;;;;;;0.70;0.70;;;2.90;99.90;;;;;;5089091;28;20052;-77
2023/04/02 04:14:19;;;;;;;0.93;0.80;;;2.90;99.90;;;;;;5093816;28;20453;-77
2023/04/02 04:17:12;;;;;;;1.05;0.93;;;2.80;99.90;;;;;;5092260;28;20083;-77
2023/04/02 04:19:44;;;;;;;0.90;0.90;;;2.80;99.90;;;;;;5093794;28;20035;-77
2023/04/02 04:22:13;;;;;;;0.88;0.88;;;2.80;99.90;;;;;;5092094;28;20040;-77
2023/04/02 04:24:44;;;;;;;1.20;0.90;;;2.80;99.90;;;;;;5092134;28;20043;-77
2023/04/02 04:27:33;;;;;;;1.13;0.80;;;2.80;99.90;;;;;;5093343;28;20048;-77
2023/04/02 04:30:17;;;;;;;0.70;0.70;;;2.80;99.90;;;;;;5075543;28;20040;-77
2023/04/02 04:33:14;;;;;;;1.25;0.70;;;2.70;99.90;;;;;;5092171;28;20051;-77
2023/04/02 04:35:47;;;;;;;0.88;0.85;;;2.70;99.90;;;;;;5092128;28;20488;-77
2023/04/02 04:38:20;;;;;;;1.10;1.00;;;2.70;99.90;;;;;;5091904;28;20060;-78
2023/04/02 04:40:55;;;;;;;0.82;0.82;;;2.60;99.90;;;;;;5092183;28;20067;-77
2023/04/02 04:43:29;;;;;;;1.17;0.82;;;2.80;99.90;;;;;;5093557;28;20074;-77
2023/04/02 04:46:26;;;;;;;0.90;0.80;;;2.70;99.90;;;;;;5092199;28;20044;-77
2023/04/02 04:49:01;;;;;;;1.13;0.75;;;2.60;99.90;;;;;;5092136;28;20059;-77
2023/04/02 04:51:34;;;;;;;0.70;0.70;;;2.70;99.90;;;;;;5091978;28;20119;-77
2023/04/02 04:54:00;;;;;;;1.00;0.90;;;2.70;99.90;;;;;;5093091;28;20059;-77
2023/04/02 04:56:28;;;;;;;1.13;1.02;;;2.80;99.90;;;;;;5092999;28;20392;-77
2023/04/02 04:59:19;;;;;;;0.70;0.70;;;2.70;99.90;;;;;;5091806;28;20044;-77
2023/04/02 05:01:44;;;;;;;;;;;2.80;99.90;;;;;;5092797;28;20063;-77
2023/04/02 05:04:22;;;;;;;0.70;0.70;;;2.70;99.90;;;;;;5093290;28;20364;-77
2023/04/02 05:06:54;;;;;;;0.60;0.60;;;2.70;99.90;;;;;;5093271;28;20048;-77
2023/04/02 05:09:28;;;;;;;1.45;0.80;;;2.60;99.90;;;;;;5091997;28;20398;-77
2023/04/02 05:12:15;;;;;;;1.10;0.85;;;2.50;99.90;;;;;;5091721;28;20048;-77
2023/04/02 05:15:02;;;;;;;0.70;0.70;;;2.40;99.90;;;;;;5092460;28;20521;-77
2023/04/02 05:17:36;;;;;;;1.05;0.80;;;2.30;99.90;;;;;;5092735;28;20058;-77
2023/04/02 05:20:42;;;;;;;1.55;0.80;;;2.20;99.90;;;;;;5091695;28;20111;-77
2023/04/02 05:23:27;;;;;;;0.80;0.80;;;2.30;99.90;;;;;;5072453;28;20056;-78
2023/04/02 05:26:12;;;;;;;0.80;0.80;;;2.30;99.90;;;;;;5074333;28;20053;-77
2023/04/02 05:28:45;;;;;;;0.98;0.85;;;2.30;99.90;;;;;;5057450;28;20105;-78
2023/04/02 05:31:17;;;;;;;0.80;0.80;;;2.30;99.90;;;;;;5040871;28;20095;-77
2023/04/02 05:33:47;;;;;;;1.30;1.20;;;2.20;99.90;;;;;;5057264;28;20049;-77
2023/04/02 05:36:23;;;;;;;0.90;0.90;;;2.20;99.90;;;;;;5073938;28;20190;-77
2023/04/02 05:38:51;;;;;;;1.00;0.90;;;2.20;99.90;;;;;;5073692;28;20044;-77
2023/04/02 05:41:37;;;;;;;1.23;0.90;;;2.10;99.90;;;;;;5057103;28;20159;-77
2023/04/02 05:44:10;;;;;;;0.80;0.80;;;2.10;99.90;;;;;;5057163;28;20055;-77
2023/04/02 05:46:49;;;;;;;0.82;0.82;;;2.10;99.90;;;;;;5058111;28;20181;-77
2023/04/02 05:49:27;;;;;;;0.60;0.60;;;2.10;99.90;;;;;;5073803;28;20446;-77
2023/04/02 05:51:57;;;;;;;0.77;0.75;;;2.10;99.90;;;;;;5073754;28;20595;-77
2023/04/02 05:54:31;;;;;;;1.30;0.70;;;2.20;99.90;;;;;;5073657;28;20155;-77
2023/04/02 05:57:03;;;;;;;1.33;1.23;;;2.20;99.90;;;;;;5085111;28;20052;-77
2023/04/02 05:59:33;;;;;;;0.93;0.90;;;2.30;99.90;;;;;;5096219;28;20051;-77
2023/04/02 06:02:01;;;;;;;1.00;0.90;;;2.30;99.90;;;;;;5094658;28;20044;-77
2023/04/02 06:04:36;;;;;;;0.75;0.75;;;2.30;99.90;;;;;;5094601;28;20048;-77
2023/04/02 06:07:22;;;;;;;0.80;0.80;;;2.20;99.90;;;;;;5094574;28;20047;-77
2023/04/02 06:10:14;;;;;;;0.85;0.85;;;2.20;99.90;;;;;;5095998;28;20039;-77
2023/04/02 06:12:50;;;;;;;1.10;0.80;;;2.30;99.90;;;;;;5096010;28;20069;-77
2023/04/02 06:15:19;;;;;;;1.27;0.90;;;2.30;99.90;;;;;;5094387;28;20044;-77
2023/04/02 06:18:13;;;;;;;0.93;0.70;;;2.30;99.90;;;;;;5095617;28;20396;-77
2023/04/02 06:20:39;;;;;;;1.02;0.90;;;2.40;99.90;;;;;;5090338;28;20059;-77
2023/04/02 06:23:14;;;;;;;1.10;0.88;;;2.40;99.90;;;;;;5095681;28;20038;-77
2023/04/02 06:25:51;;;;;;;1.05;0.90;;;2.40;99.90;;;;;;5095406;28;20541;-77
2023/04/02 06:28:23;;;;;;;1.42;1.00;;;2.50;99.90;;;;;;5095710;28;20044;-77
2023/04/02 06:30:53;;;;;;;0.73;0.70;;;2.50;99.90;;;;;;5095336;28;20529;-77
2023/04/02 06:33:19;;;;;;;0.70;0.60;;;2.50;99.90;;;;;;5094842;28;20048;-77
2023/04/02 06:35:46;;;;;;;0.80;0.80;;;2.50;99.90;;;;;;5093260;28;20047;-77
2023/04/02 06:38:24;;;;;;;0.75;0.70;;;2.70;99.90;;;;;;5077254;28;20404;-78
2023/04/02 06:40:56;;;;;;;1.00;0.90;;;2.70;99.90;;;;;;5095338;28;20388;-77
2023/04/02 06:43:32;;;;;;;0.80;0.80;;;2.70;99.90;;;;;;5094213;28;20418;-78
2023/04/02 06:46:01;;;;;;;1.13;0.70;;;2.80;99.90;;;;;;5093772;28;20051;-78
2023/04/02 06:48:28;;;;;;;0.70;0.70;;;2.90;99.90;;;;;;5094975;28;20032;-77
2023/04/02 06:51:02;;;;;;;0.88;0.88;;;2.80;99.90;;;;;;5095224;28;20047;-78
2023/04/02 06:53:47;;;;;;;0.73;0.73;;;3.00;99.90;;;;;;5093695;28;20048;-78
2023/04/02 06:56:37;;;;;;;1.25;0.90;;;3.00;99.90;;;;;;5095171;28;20048;-78
2023/04/02 06:59:06;;;;;;;0.80;0.80;;;3.00;99.90;;;;;;5076712;28;20125;-78
2023/04/02 07:01:38;;;;;;;0.95;0.85;;;3.10;99.90;;;;;;5094941;28;20044;-78
2023/04/02 07:04:05;;;;;;;0.70;0.70;;;3.10;99.90;;;;;;5093477;28;20047;-78
2023/04/02 07:06:30;;;;;;;0.60;0.60;;;3.10;99.90;;;;;;5093426;28;20040;-78
2023/04/02 07:08:56;;;;;;;0.70;0.70;;;3.20;99.90;;;;;;5093289;28;20481;-77
2023/04/02 07:11:22;;;;;;;0.63;0.63;;;3.20;99.90;;;;;;5093632;28;20036;-78
2023/04/02 07:13:49;;;;;;;0.82;0.70;;;3.20;99.90;;;;;;5093193;28;20126;-76
2023/04/02 07:16:17;;;;;;;1.23;0.93;;;3.30;99.90;;;;;;5093186;28;20123;-76
2023/04/02 07:18:43;;;;;;;1.02;0.93;;;3.40;99.90;;;;;;5093304;28;20047;-78
2023/04/02 07:21:09;;;;;;;0.70;0.70;;;3.40;99.90;;;;;;5094739;28;20044;-75
2023/04/02 07:23:35;;;;;;;1.38;1.00;;;3.40;99.90;;;;;;5127350;27;20063;-75
2023/04/02 07:26:01;;;;;;;0.80;0.80;;;3.50;99.90;;;;;;5075988;28;20377;-74
2023/04/02 07:28:27;;;;;;;1.00;0.80;;;3.60;99.90;;;;;;5094536;28;20105;-77
2023/04/02 07:30:53;;;;;;;1.20;0.80;;;3.60;99.90;;;;;;5094524;28;20081;-75
2023/04/02 07:33:26;;;;;;;0.70;0.68;;;3.60;99.90;;;;;;5094038;28;20531;-75
2023/04/02 07:35:53;;;;;;;1.10;0.77;;;3.70;99.90;;;;;;5094491;28;20040;-74
2023/04/02 07:38:20;;;;;;;0.90;0.73;;;3.80;99.90;;;;;;5093930;28;20131;-75
2023/04/02 07:40:46;;;;;;;0.80;0.80;;;3.90;99.90;;;;;;5092551;28;20062;-75
2023/04/02 07:43:12;;;;;;;1.25;0.90;;;4.00;99.90;;;;;;5092994;28;20036;-73
2023/04/02 07:45:37;;;;;;;0.70;0.70;;;4.00;99.90;;;;;;5092381;28;20538;-74
2023/04/02 07:48:08;;;;;;;0.70;0.70;;;4.10;99.90;;;;;;5092890;28;20141;-74
2023/04/02 07:50:35;;;;;;;1.02;0.93;;;4.10;99.90;;;;;;5094161;28;20070;-73
2023/04/02 07:53:00;;;;;;;0.80;0.80;;;4.20;99.90;;;;;;5092508;28;20124;-74
2023/04/02 07:55:26;;;;;;;1.10;1.00;;;4.20;99.90;;;;;;5092447;28;20044;-74
2023/04/02 07:57:58;;;;;;;0.65;0.65;;;4.40;99.90;;;;;;5075658;28;20052;-74
2023/04/02 08:00:25;;;;;;;0.70;0.70;;;4.50;99.90;;;;;;5093991;28;20047;-73
2023/04/02 08:02:51;;;;;;;0.95;0.70;;;4.50;99.90;;;;;;5092415;28;20036;-72
2023/04/02 08:05:17;;;;;;;0.70;0.70;;;4.70;99.90;;;;;;5092610;28;20040;-72
2023/04/02 08:07:50;;;;;;;0.80;0.80;;;4.70;99.90;;;;;;5092670;28;20486;-72
2023/04/02 08:10:17;;;;;;;0.70;0.70;;;4.70;99.90;;;;;;5092321;28;20039;-72
2023/04/02 08:12:44;;;;;;;0.98;0.85;;;4.60;99.90;;;;;;5092772;28;20464;-83
2023/04/02 08:15:14;;;;;;;0.70;0.70;;;4.60;99.90;;;;;;5092330;28;20157;-73
2023/04/02 08:17:39;;;;;;;0.60;0.60;;;4.50;99.90;;;;;;5092553;28;20040;-76
2023/04/02 08:20:06;;;;;;;1.15;0.80;;;4.60;99.90;;;;;;5093709;28;20061;-72
2023/04/02 08:22:32;;;;;;;0.63;0.60;;;4.80;99.90;;;;;;5093624;28;20040;-72
2023/04/02 08:24:58;;;;;;;0.68;0.68;;;5.00;99.90;;;;;;5093660;28;20122;-72
2023/04/02 08:27:24;;;;;;;1.73;0.77;;;5.10;99.90;;;;;;5092341;28;20174;-72
2023/04/02 08:29:50;;;;;;;0.82;0.82;;;5.30;99.90;;;;;;5093620;28;20040;-72
2023/04/02 08:32:16;;;;;;;0.60;0.60;;;5.30;99.90;;;;;;5092065;28;20407;-72
2023/04/02 08:34:42;;;;;;;0.70;0.70;;;5.30;99.90;;;;;;5093561;28;20040;-72
2023/04/02 08:37:10;;;;;;;0.60;0.60;;;5.40;99.90;;;;;;5093311;28;20141;-72
2023/04/02 08:39:36;;;;;;;0.77;0.73;;;5.40;99.90;;;;;;5093595;28;20044;-72
2023/04/02 08:42:16;;;;;;;0.70;0.70;;;5.50;99.90;;;;;;5091930;28;20085;-72
2023/04/02 08:44:45;;;;;;;0.73;0.70;;;5.50;99.90;;;;;;5092302;28;20043;-73
2023/04/02 08:47:13;;;;;;;0.75;0.60;;;5.50;99.90;;;;;;5093496;28;20051;-76
2023/04/02 08:49:54;;;;;;;1.02;0.93;;;5.40;99.90;;;;;;5093467;28;20079;-75
2023/04/02 08:52:30;;;;;;;0.80;0.80;;;5.40;99.90;;;;;;5091994;28;20055;-76
2023/04/02 08:54:57;;;;;;;1.35;0.70;;;5.50;99.90;;;;;;5092160;28;20448;-75
2023/04/02 08:57:31;;;;;;;0.60;0.60;;;5.40;99.90;;;;;;5094283;28;20036;-75
2023/04/02 09:00:21;;;;;;;0.55;0.55;;;5.50;99.90;;;;;;5097138;28;20484;-75
2023/04/02 09:02:57;;;;;;;0.70;0.70;;;5.50;99.90;;;;;;5092840;28;20236;-76
2023/04/02 09:05:28;;;;;;;1.08;0.98;;;5.60;99.90;;;;;;5097345;28;20032;-76
2023/04/02 09:07:57;;;;;;;1.00;0.70;;;5.60;99.90;;;;;;5096957;28;20067;-76
2023/04/02 09:10:30;;;;;;;0.77;0.70;;;5.60;99.90;;;;;;5096916;28;20118;-76
2023/04/02 09:12:57;;;;;;;0.88;0.80;;;5.70;99.90;;;;;;5096809;28;20119;-76
2023/04/02 09:15:34;;;;;;;1.25;0.60;;;5.70;99.90;;;;;;5096297;28;20119;-74
2023/04/02 09:18:11;;;;;;;0.65;0.65;;;5.80;99.90;;;;;;5095482;28;20058;-81
2023/04/02 09:20:37;;;;;;;0.60;0.60;;;5.90;99.90;;;;;;5095351;28;20044;-82
2023/04/02 09:23:04;;;;;;;0.60;0.60;;;5.90;99.90;;;;;;5095819;28;20032;-81
2023/04/02 09:25:32;;;;;;;1.95;0.95;;;5.90;99.90;;;;;;5095333;28;20036;-81
2023/04/02 09:28:01;;;;;;;0.98;0.70;;;6.10;99.90;;;;;;5095668;28;20119;-81
2023/04/02 09:31:12;;;;;;;0.90;0.80;;;6.10;99.90;;;;;;5095339;28;20089;-81
2023/04/02 09:33:50;;;;;;;1.13;0.68;;;6.20;99.90;;;;;;5078522;28;20055;-81
2023/04/02 09:36:37;;;;;;;1.10;0.85;;;6.20;99.90;;;;;;5078525;28;20032;-82
2023/04/02 09:39:05;;;;;;;0.52;0.52;;;6.30;99.90;;;;;;5078041;28;20149;-82
2023/04/02 09:41:34;;;;;;;0.60;0.60;;;6.30;99.90;;;;;;5094970;28;20052;-81
2023/04/02 09:44:12;;;;;;;0.60;0.60;;;6.40;99.90;;;;;;5078388;28;20378;-82
2023/04/02 09:47:12;;;;;;;0.70;0.70;;;6.50;99.90;;;;;;5094881;28;20130;-80
2023/04/02 09:49:38;;;;;;;0.77;0.70;;;6.60;99.90;;;;;;5092955;28;20132;-81
2023/04/02 09:52:13;;;;;;;1.20;0.68;;;6.60;99.90;;;;;;5077882;28;20040;-81
2023/04/02 09:54:42;;;;;;;0.85;0.70;;;6.70;99.90;;;;;;5096018;28;20492;-81
2023/04/02 09:57:22;;;;;;;1.15;0.70;;;6.70;99.90;;;;;;5096279;28;20142;-81
2023/04/02 10:00:15;;;;;;;0.60;0.60;;;6.90;99.90;;;;;;5095084;28;20084;-81
2023/04/02 10:02:42;;;;;;;0.70;0.70;;;6.90;99.90;;;;;;5096164;28;20044;-81
2023/04/02 10:05:34;;;;;;;0.93;0.60;;;7.00;99.90;;;;;;5077793;28;20216;-80
2023/04/02 10:08:18;;;;;;;0.82;0.80;;;7.00;99.90;;;;;;5094875;28;20155;-80
2023/04/02 10:10:51;;;;;;;0.50;0.50;;;7.00;99.90;;;;;;5094872;28;20042;-80
2023/04/02 10:13:26;;;;;;;0.63;0.60;;;7.10;99.90;;;;;;5077909;28;20066;-74
2023/04/02 10:15:59;;;;;;;0.80;0.80;;;7.20;99.90;;;;;;5094894;28;20055;-81
2023/04/02 10:18:43;;;;;;;0.63;0.63;;;7.30;99.90;;;;;;5095863;28;20048;-82
2023/04/02 10:21:12;;;;;;;0.70;0.60;;;7.30;99.90;;;;;;5077388;28;20051;-82
2023/04/02 10:23:38;;;;;;;0.70;0.70;;;7.40;99.90;;;;;;5094268;28;20115;-76
2023/04/02 10:26:16;;;;;;;0.60;0.60;;;7.50;99.90;;;;;;5094467;28;20432;-84
2023/04/02 10:29:03;;;;;;;0.68;0.57;;;7.50;99.90;;;;;;5094346;28;20093;-85
2023/04/02 10:31:56;;;;;;;0.70;0.70;;;7.50;99.90;;;;;;5094531;28;20463;-78
2023/04/02 10:34:44;;;;;;;1.23;0.60;;;7.60;99.90;;;;;;5094326;28;20043;-79
2023/04/02 10:37:34;;;;;;;1.00;0.90;;;7.60;99.90;;;;;;5055935;28;20186;-76
2023/04/02 10:40:08;;;;;;;0.70;0.70;;;7.70;99.90;;;;;;5072878;28;20086;-76
2023/04/02 10:42:54;;;;;;;0.45;0.45;;;7.70;99.90;;;;;;5056177;28;20057;-77
2023/04/02 10:45:34;;;;;;;0.63;0.60;;;7.70;99.90;;;;;;5056062;28;20048;-75
2023/04/02 10:48:16;;;;;;;0.60;0.60;;;7.70;99.90;;;;;;5056268;28;20064;-78
2023/04/02 10:50:57;;;;;;;0.60;0.60;;;7.80;99.90;;;;;;5072669;28;20511;-78
2023/04/02 10:53:32;;;;;;;0.60;0.60;;;7.80;99.90;;;;;;5039339;28;20040;-75
2023/04/02 10:56:03;;;;;;;0.60;0.60;;;7.90;99.90;;;;;;5072780;28;20053;-73
2023/04/02 10:58:38;;;;;;;0.63;0.60;;;7.90;99.90;;;;;;5039206;28;20032;-73
2023/04/02 11:01:15;;;;;;;0.60;0.60;;;8.00;99.90;;;;;;5072334;28;20508;-72
2023/04/02 11:03:54;;;;;;;0.82;0.63;;;8.00;99.90;;;;;;5055582;28;20047;-76
2023/04/02 11:06:27;;;;;;;0.60;0.60;;;8.10;99.90;;;;;;5072815;28;20404;-68
2023/04/02 11:09:05;;;;;;;0.90;0.90;;;8.20;99.90;;;;;;5055968;28;20056;-67
2023/04/02 11:11:43;;;;;;;0.63;0.55;;;8.30;99.90;;;;;;5055753;28;20120;-76
2023/04/02 11:14:17;;;;;;;0.60;0.60;;;8.30;99.90;;;;;;5072568;28;20056;-76
2023/04/02 11:16:43;;;;;;;0.60;0.60;;;8.20;99.90;;;;;;5094533;28;20040;-77
2023/04/02 11:19:15;;;;;;;0.60;0.60;;;8.10;99.90;;;;;;5093208;28;20047;-77
2023/04/02 11:21:48;;;;;;;0.55;0.55;;;8.20;99.90;;;;;;5094103;28;20131;-76
2023/04/02 11:24:30;;;;;;;0.45;0.45;;;8.30;99.90;;;;;;5094727;28;20050;-76
2023/04/02 11:27:10;;;;;;;0.47;0.45;;;8.40;99.90;;;;;;5094607;28;20051;-76
2023/04/02 11:29:48;;;;;;;1.02;0.65;;;8.60;99.90;;;;;;5076098;28;20126;-76
2023/04/02 11:32:28;;;;;;;0.57;0.57;;;8.60;99.90;;;;;;5094572;28;20244;-77
2023/04/02 11:34:53;;;;;;;0.80;0.60;;;8.80;99.90;;;;;;5093348;28;20044;-76
2023/04/02 11:37:37;;;;;;;0.82;0.60;;;8.90;99.90;;;;;;5092919;28;20050;-76
2023/04/02 11:40:12;;;;;;;0.60;0.60;;;9.10;99.90;;;;;;5092850;28;20483;-76
2023/04/02 11:42:40;;;;;;;0.60;0.60;;;9.30;99.90;;;;;;5092962;28;20411;-77
2023/04/02 11:45:25;;;;;;;0.70;0.70;;;9.40;99.90;;;;;;5092635;28;20499;-77
2023/04/02 11:47:59;;;;;;;0.47;0.47;;;9.60;99.90;;;;;;5094203;28;20047;-76
2023/04/02 11:50:45;;;;;;;0.50;0.50;;;9.80;99.90;;;;;;5093839;28;20084;-77
2023/04/02 11:53:10;;;;;;;0.60;0.60;;;9.90;99.90;;;;;;5093172;28;20039;-77
2023/04/02 11:56:18;;;;;;;0.60;0.60;;;9.90;99.90;;;;;;5093793;28;20158;-76
2023/04/02 11:58:55;;;;;;;0.70;0.70;;;10.00;99.90;;;;;;5092495;28;20043;-76
2023/04/02 12:01:28;;;;;;;0.50;0.50;;;10.10;99.90;;;;;;5093935;28;20426;-77
2023/04/02 12:03:57;;;;;;;0.50;0.50;;;10.30;99.90;;;;;;5092783;28;20392;-77
2023/04/02 12:06:29;;;;;;;0.80;0.68;;;10.40;99.90;;;;;;5094034;28;20063;-77
2023/04/02 12:09:04;;;;;;;0.40;0.40;;;10.60;99.90;;;;;;5092422;28;20062;-77
2023/04/02 12:11:39;;;;;;;0.43;0.43;;;10.70;99.90;;;;;;5092343;28;20052;-77
2023/04/02 12:14:44;;;;;;;0.63;0.60;;;10.80;99.90;;;;;;5093581;28;20040;-77
2023/04/02 12:17:35;;;;;;;0.50;0.50;;;11.00;99.90;;;;;;5093859;28;20051;-77
2023/04/02 12:20:07;;;;;;;0.57;0.43;;;11.10;99.90;;;;;;5090909;28;20058;-77
2023/04/02 12:22:37;;;;;;;0.40;0.40;;;11.10;99.90;;;;;;5093373;28;20118;-76
2023/04/02 12:25:30;;;;;;;0.50;0.50;;;11.00;99.90;;;;;;5092454;28;20572;-77
2023/04/02 12:28:13;;;;;;;0.60;0.60;;;10.80;99.90;;;;;;5069984;28;20048;-77
2023/04/02 12:30:40;;;;;;;0.50;0.50;;;10.80;99.90;;;;;;5092370;28;20107;-77
2023/04/02 12:33:21;;;;;;;0.50;0.50;;;10.70;99.90;;;;;;5094379;28;20040;-76
2023/04/02 12:35:49;;;;;;;0.40;0.40;;;10.60;99.90;;;;;;5098027;28;20040;-77
2023/04/02 12:38:27;;;;;;;0.50;0.50;;;10.70;99.90;;;;;;5096013;28;20059;-77
2023/04/02 12:40:55;;;;;;;0.60;0.60;;;10.90;99.90;;;;;;5096200;28;20096;-77
2023/04/02 12:43:30;;;;;;;0.45;0.45;;;11.00;99.90;;;;;;5130261;27;20123;-77
2023/04/02 12:45:59;;;;;;;0.60;0.60;;;11.00;99.90;;;;;;5097683;28;20039;-77
2023/04/02 12:48:27;;;;;;;0.60;0.60;;;11.00;99.90;;;;;;5097732;28;20086;-77
2023/04/02 12:50:54;;;;;;;0.45;0.45;;;11.00;99.90;;;;;;5079418;28;20119;-77
2023/04/02 12:53:29;;;;;;;0.55;0.55;;;11.00;99.90;;;;;;5095996;28;20052;-77
2023/04/02 12:55:55;;;;;;;0.50;0.50;;;11.00;99.90;;;;;;5097554;28;20048;-77
2023/04/02 12:58:38;;;;;;;0.45;0.45;;;11.10;99.90;;;;;;5097451;28;20036;-77
2023/04/02 13:01:08;;;;;;;0.60;0.60;;;11.30;99.90;;;;;;5129950;27;20074;-77
2023/04/02 13:03:34;;;;;;;0.50;0.50;;;11.40;99.90;;;;;;5097288;28;20047;-77
2023/04/02 13:06:00;;;;;;;0.75;0.60;;;11.50;99.90;;;;;;5096966;28;20032;-77
2023/04/02 13:08:29;;;;;;;0.47;0.47;;;11.80;99.90;;;;;;5095989;28;20040;-77
2023/04/02 13:11:05;;;;;;;0.60;0.60;;;11.90;99.90;;;;;;5095647;28;20051;-77
2023/04/02 13:13:37;;;;;;;0.43;0.43;;;12.00;99.90;;;;;;5078678;28;20055;-77
2023/04/02 13:16:11;;;;;;;0.50;0.50;;;12.10;99.90;;;;;;5097069;28;20044;-77
2023/04/02 13:18:37;;;;;;;0.40;0.40;;;12.10;99.90;;;;;;5078760;28;20063;-77
2023/04/02 13:21:05;;;;;;;0.50;0.50;;;12.00;99.80;;;;;;5095611;28;20070;-77
2023/04/02 13:23:35;;;;;;;0.68;0.55;;;12.20;98.80;;;;;;5095236;28;20036;-69
2023/04/02 13:26:09;;;;;;;;;;;12.20;99.80;;;;;;5095814;28;20101;-73
2023/04/02 13:28:35;;;;;;;0.30;0.30;;;12.20;98.70;;;;;;5096904;28;19920;-73
2023/04/02 13:31:00;;;;;;;0.43;0.43;;;12.30;98.90;;;;;;5078450;28;20081;-72
2023/04/02 13:33:26;;;;;;;0.60;0.60;;;12.40;99.10;;;;;;5095569;28;20403;-73
2023/04/02 13:35:51;;;;;;;0.57;0.57;;;12.40;98.40;;;;;;5096791;28;20036;-72